Time;durP1;ratioP1;P1;durP2;ratioP2;P2;SDS_P1;SDS_P2;PMS_P1;PMS_P2;Temp;Humidity;BMP_temperature;BMP_pressure;BME280_temperature;BME280_humidity;BME280_pressure;Samples;Min_cycle;Max_cycle;Signal;HPM_P1;HPM_P2
2022/09/13 00:02:13;;;;;;;6.32;6.03;;;;;;;18.66;77.50;99029.38;5110702;28;20592;-54
2022/09/13 00:04:40;;;;;;;6.30;5.90;;;;;;;18.58;77.72;99029.06;5110196;28;20198;-54
2022/09/13 00:07:07;;;;;;;6.10;5.80;;;;;;;18.60;77.98;99021.94;5110388;28;20201;-54
2022/09/13 00:09:34;;;;;;;6.40;5.97;;;;;;;18.63;77.43;99025.16;5110072;28;20186;-58
2022/09/13 00:12:01;;;;;;;5.83;5.53;;;;;;;18.60;77.26;99020.16;5110351;28;20205;-53
2022/09/13 00:14:28;;;;;;;6.40;6.00;;;;;;;18.61;77.28;99027.09;5109750;28;20234;-54
2022/09/13 00:16:56;;;;;;;6.40;6.10;;;;;;;18.44;77.15;99004.56;5109245;28;20197;-55
2022/09/13 00:19:23;;;;;;;6.70;6.10;;;;;;;18.52;77.48;99023.25;5109954;28;20309;-53
2022/09/13 00:21:50;;;;;;;6.20;5.83;;;;;;;18.56;76.90;99020.41;5109946;28;20592;-54
2022/09/13 00:24:17;;;;;;;6.23;5.93;;;;;;;18.49;76.79;99018.22;5109959;28;20216;-59
2022/09/13 00:26:44;;;;;;;6.07;5.75;;;;;;;18.47;76.53;99019.28;5110025;28;20203;-57
2022/09/13 00:29:11;;;;;;;6.40;5.90;;;;;;;18.25;76.33;98982.28;5110152;28;20201;-56
2022/09/13 00:31:38;;;;;;;6.00;5.70;;;;;;;18.44;76.02;99001.09;5109693;28;20201;-56
2022/09/13 00:34:07;;;;;;;6.70;6.10;;;;;;;18.34;75.94;98993.00;5109792;28;20255;-57
2022/09/13 00:36:33;;;;;;;6.43;6.10;;;;;;;18.43;76.42;99012.53;5109712;28;20202;-57
2022/09/13 00:39:01;;;;;;;6.43;6.13;;;;;;;18.40;76.27;99012.75;5109845;28;20213;-57
2022/09/13 00:41:28;;;;;;;5.70;5.40;;;;;;;18.30;76.60;98990.69;5109611;28;20214;-57
2022/09/13 00:43:58;;;;;;;6.30;5.90;;;;;;;18.39;76.97;99001.41;5109831;28;20195;-52
2022/09/13 00:46:32;;;;;;;6.27;5.97;;;;;;;18.38;77.24;99010.25;5109837;28;20297;-57
2022/09/13 00:49:05;;;;;;;6.20;5.80;;;;;;;18.30;77.36;98991.50;5109640;28;20193;-57
2022/09/13 00:51:33;;;;;;;5.60;5.30;;;;;;;18.41;76.85;99015.25;5109613;28;20205;-52
2022/09/13 00:54:02;;;;;;;6.07;5.57;;;;;;;18.39;77.45;99003.19;5109754;28;20286;-52
2022/09/13 00:56:36;;;;;;;5.33;5.13;;;;;;;18.37;77.34;99003.31;5109804;28;20281;-53
2022/09/13 00:59:09;;;;;;;6.60;5.97;;;;;;;18.32;77.22;99009.81;5109780;28;20226;-53
2022/09/13 01:01:41;;;;;;;6.43;5.90;;;;;;;18.28;78.09;99003.94;5109362;28;20218;-52
2022/09/13 01:04:08;;;;;;;5.73;5.40;;;;;;;18.30;77.88;99004.66;5109516;28;20203;-52
2022/09/13 01:06:39;;;;;;;5.70;5.40;;;;;;;18.28;78.31;99001.31;5109583;28;20687;-52
2022/09/13 01:09:07;;;;;;;6.10;5.10;;;;;;;18.25;78.83;99003.31;5109637;28;20289;-53
2022/09/13 01:11:41;;;;;;;5.70;5.40;;;;;;;18.26;78.47;99005.00;5109423;28;20198;-53
2022/09/13 01:14:09;;;;;;;5.60;5.10;;;;;;;18.24;78.64;98999.84;5109403;28;20678;-53
2022/09/13 01:16:36;;;;;;;11.30;5.40;;;;;;;18.21;78.54;99001.81;5109482;28;20205;-52
2022/09/13 01:19:03;;;;;;;5.63;4.77;;;;;;;18.19;78.86;98999.28;5109457;28;20208;-52
2022/09/13 01:22:14;;;;;;;5.53;5.23;;;;;;;18.18;78.82;99002.03;5109274;28;20219;-53
2022/09/13 01:25:35;;;;;;;4.90;4.70;;;;;;;18.13;79.20;99008.44;5109753;28;20215;-53
2022/09/13 01:28:39;;;;;;;5.40;5.10;;;;;;;18.09;79.31;99004.34;5046377;28;20203;-56
2022/09/13 01:31:12;;;;;;;5.57;5.10;;;;;;;18.15;79.15;98997.84;5113294;28;20231;-56
2022/09/13 01:33:59;;;;;;;5.43;5.03;;;;;;;18.16;78.97;98998.69;5113070;28;20629;-56
2022/09/13 01:36:41;;;;;;;5.40;4.90;;;;;;;18.17;79.02;98995.13;5113023;28;20201;-55
2022/09/13 01:39:14;;;;;;;5.13;4.80;;;;;;;18.17;78.75;98997.75;5113043;28;20207;-56
2022/09/13 01:42:00;;;;;;;4.80;4.50;;;;;;;18.09;78.83;98996.44;5112911;28;20218;-55
2022/09/13 01:44:44;;;;;;;5.73;5.33;;;;;;;18.05;79.45;98992.38;5112972;28;20224;-56
2022/09/13 01:47:24;;;;;;;5.30;5.00;;;;;;;18.04;79.42;98984.59;5112935;28;20194;-55
2022/09/13 01:50:07;;;;;;;5.50;4.80;;;;;;;18.01;79.56;98996.13;5113272;28;20277;-56
2022/09/13 01:52:43;;;;;;;5.27;4.87;;;;;;;17.99;79.98;98991.94;5113054;28;20195;-57
2022/09/13 01:55:19;;;;;;;5.60;5.30;;;;;;;17.99;79.52;98999.81;5112942;28;20197;-56
2022/09/13 01:57:54;;;;;;;5.23;4.73;;;;;;;17.96;80.08;98997.38;5112826;28;20654;-57
2022/09/13 02:00:21;;;;;;;5.73;5.23;;;;;;;17.96;79.96;98998.22;5112688;28;20224;-57
2022/09/13 02:02:54;;;;;;;5.47;5.17;;;;;;;17.93;80.32;98993.19;5112742;28;20198;-56
2022/09/13 02:05:27;;;;;;;5.23;4.63;;;;;;;17.92;80.59;98991.50;5112718;28;20641;-56
2022/09/13 02:08:00;;;;;;;5.27;4.87;;;;;;;17.88;80.47;98997.91;5112647;28;20202;-56
2022/09/13 02:10:33;;;;;;;5.00;4.67;;;;;;;17.82;80.26;98979.94;5112399;28;20666;-56
2022/09/13 02:13:04;;;;;;;4.90;4.70;;;;;;;17.87;80.01;98990.13;5112471;28;20194;-52
2022/09/13 02:15:36;;;;;;;5.20;4.90;;;;;;;17.89;80.17;98985.63;5112498;28;20653;-56
2022/09/13 02:18:10;;;;;;;5.10;4.80;;;;;;;17.90;79.94;98985.53;5112623;28;20809;-53
2022/09/13 02:20:40;;;;;;;5.33;4.83;;;;;;;17.87;79.15;98988.34;5112161;28;20222;-53
2022/09/13 02:23:13;;;;;;;5.00;4.70;;;;;;;17.88;78.92;98990.03;5112293;28;20199;-54
2022/09/13 02:25:41;;;;;;;5.03;4.70;;;;;;;17.76;79.92;98977.72;5112254;28;20199;-52
2022/09/13 02:28:11;;;;;;;5.43;5.07;;;;;;;17.78;79.52;98986.34;5112206;28;20195;-52
2022/09/13 02:30:41;;;;;;;5.27;4.93;;;;;;;17.79;79.75;98982.78;5112214;28;20190;-52
2022/09/13 02:33:13;;;;;;;5.80;5.10;;;;;;;17.82;79.24;98985.19;5111834;28;20309;-52
2022/09/13 02:35:45;;;;;;;5.30;5.00;;;;;;;17.81;79.10;98990.53;5112022;28;20201;-52
2022/09/13 02:38:17;;;;;;;5.10;4.80;;;;;;;17.81;79.65;98991.38;5111864;28;20191;-52
2022/09/13 02:40:52;;;;;;;5.47;5.13;;;;;;;17.72;79.41;98984.09;5112109;28;20333;-53
2022/09/13 02:43:25;;;;;;;5.40;5.10;;;;;;;17.76;79.42;98993.47;5111765;28;20255;-52
2022/09/13 02:46:04;;;;;;;5.77;5.17;;;;;;;17.70;79.60;98986.00;5111797;28;20248;-51
2022/09/13 02:48:40;;;;;;;5.23;4.93;;;;;;;17.72;78.98;98984.94;5111840;28;20199;-53
2022/09/13 02:51:12;;;;;;;5.33;5.03;;;;;;;17.77;78.52;98987.28;5111705;28;20195;-57
2022/09/13 02:53:44;;;;;;;5.50;5.00;;;;;;;17.68;78.67;98972.97;5111549;28;20199;-52
2022/09/13 02:56:21;;;;;;;5.30;4.80;;;;;;;17.72;78.33;98973.59;5111607;28;20195;-56
2022/09/13 02:58:56;;;;;;;5.20;4.90;;;;;;;17.81;77.77;98994.00;5112016;28;20705;-56
2022/09/13 03:01:24;;;;;;;5.20;4.90;;;;;;;17.77;77.37;98995.16;5111386;28;20226;-57
2022/09/13 03:03:53;;;;;;;5.57;5.10;;;;;;;17.75;77.59;98990.00;5111509;28;20785;-56
2022/09/13 03:06:24;;;;;;;5.23;4.83;;;;;;;17.75;76.99;98994.41;5111223;28;20259;-57
2022/09/13 03:08:52;;;;;;;5.60;5.30;;;;;;;17.74;77.78;98992.72;5111215;28;20209;-57
2022/09/13 03:11:32;;;;;;;5.30;5.00;;;;;;;17.73;77.19;98998.91;5111292;28;20750;-57
2022/09/13 03:14:19;;;;;;;5.43;5.03;;;;;;;17.72;76.49;98995.44;5111467;28;20202;-57
2022/09/13 03:17:02;;;;;;;5.33;4.97;;;;;;;17.70;77.24;99012.25;5111336;28;20198;-58
2022/09/13 03:19:45;;;;;;;5.97;5.50;;;;;;;17.65;77.27;99012.53;5111456;28;20618;-56
2022/09/13 03:22:27;;;;;;;6.50;5.53;;;;;;;17.63;77.51;99014.44;5111438;28;20224;-56
2022/09/13 03:25:03;;;;;;;10.60;5.70;;;;;;;17.62;76.73;99014.50;5110653;28;20205;-56
2022/09/13 03:27:37;;;;;;;8.13;5.60;;;;;;;17.62;76.89;99004.00;5110094;28;20199;-53
2022/09/13 03:30:06;;;;;;;6.27;5.37;;;;;;;17.62;77.04;99017.13;5109940;28;20202;-52
2022/09/13 03:32:42;;;;;;;5.20;4.70;;;;;;;17.59;77.44;99012.09;5109182;28;20230;-53
2022/09/13 03:35:22;;;;;;;7.10;5.23;;;;;;;17.50;78.07;99010.88;5109248;28;20201;-53
2022/09/13 03:37:57;;;;;;;6.17;5.77;;;;;;;17.49;78.02;99001.34;5109789;28;20194;-53
2022/09/13 03:40:35;;;;;;;6.57;5.87;;;;;;;17.49;78.35;99011.00;5110112;28;20600;-50
2022/09/13 03:43:07;;;;;;;5.37;5.07;;;;;;;17.45;78.52;99012.97;5109567;28;20202;-51
2022/09/13 03:45:40;;;;;;;5.73;5.23;;;;;;;17.36;79.03;99022.28;5107302;28;20588;-51
2022/09/13 03:48:11;;;;;;;6.63;5.10;;;;;;;17.37;79.08;99023.97;5109193;28;20197;-57
2022/09/13 03:50:40;;;;;;;5.63;5.20;;;;;;;17.38;79.39;99027.44;5108794;28;20194;-57
2022/09/13 03:53:10;;;;;;;5.97;5.07;;;;;;;17.38;79.50;99024.81;5109693;28;20243;-58
2022/09/13 03:55:41;;;;;;;5.73;5.23;;;;;;;17.34;79.26;99024.16;5109451;28;20194;-57
2022/09/13 03:58:11;;;;;;;5.80;5.40;;;;;;;17.32;79.65;99025.19;5109663;28;20267;-57
2022/09/13 04:00:39;;;;;;;7.57;6.03;;;;;;;17.09;80.13;98989.94;5108976;28;20213;-57
2022/09/13 04:03:06;;;;;;;6.07;5.67;;;;;;;17.15;80.71;99021.03;5109524;28;20650;-57
2022/09/13 04:05:33;;;;;;;11.87;5.60;;;;;;;17.24;80.63;99019.59;5109300;28;20201;-56
2022/09/13 04:08:04;;;;;;;5.97;5.47;;;;;;;17.23;80.44;99016.16;5109264;28;20685;-57
2022/09/13 04:10:31;;;;;;;5.77;5.47;;;;;;;17.19;80.93;99019.88;5110061;28;20193;-58
2022/09/13 04:12:59;;;;;;;6.23;5.73;;;;;;;17.17;80.81;99019.13;5109641;28;20741;-58
2022/09/13 04:15:26;;;;;;;9.20;5.87;;;;;;;17.22;81.04;99032.81;5108995;28;20198;-57
2022/09/13 04:17:53;;;;;;;8.57;6.90;;;;;;;17.29;80.62;99025.38;5109260;28;20190;-58
2022/09/13 04:20:20;;;;;;;6.13;5.63;;;;;;;17.39;79.83;99029.09;5109121;28;20241;-51
2022/09/13 04:22:51;;;;;;;5.80;5.47;;;;;;;17.40;79.86;99023.75;5108969;28;20232;-54
2022/09/13 04:25:20;;;;;;;5.63;5.23;;;;;;;17.39;79.84;99018.59;5110100;28;20682;-56
2022/09/13 04:27:48;;;;;;;8.23;5.80;;;;;;;17.57;78.98;99024.47;5109941;28;20249;-56
2022/09/13 04:30:15;;;;;;;5.50;5.20;;;;;;;17.62;78.53;99025.00;5110246;28;20191;-52
2022/09/13 04:32:44;;;;;;;7.37;5.80;;;;;;;17.60;78.82;99009.38;5109754;28;20313;-55
2022/09/13 04:35:11;;;;;;;6.00;5.60;;;;;;;17.77;79.06;99013.53;5109980;28;20564;-53
2022/09/13 04:37:38;;;;;;;7.10;6.13;;;;;;;18.03;82.29;99025.78;5109719;28;20198;-53
2022/09/13 04:40:07;;;;;;;5.17;4.73;;;;;;;17.97;76.13;99031.41;5109104;28;20206;-54
2022/09/13 04:42:35;;;;;;;5.83;5.43;;;;;;;17.95;76.29;99022.78;5108499;28;20233;-54
2022/09/13 04:45:03;;;;;;;6.30;5.63;;;;;;;18.02;77.42;99028.50;5109056;28;20217;-55
2022/09/13 04:47:30;;;;;;;6.00;5.63;;;;;;;18.18;75.41;99029.13;5109189;28;20724;-56
2022/09/13 04:49:57;;;;;;;5.60;5.10;;;;;;;18.28;74.52;99042.50;5108854;28;20205;-53
2022/09/13 04:52:24;;;;;;;5.53;5.03;;;;;;;18.39;74.63;99037.38;5108756;28;20201;-55
2022/09/13 04:54:51;;;;;;;7.00;5.33;;;;;;;18.55;74.56;99040.59;5108729;28;20256;-56
2022/09/13 04:57:18;;;;;;;8.20;5.50;;;;;;;18.61;73.55;99045.50;5109382;28;20285;-56
2022/09/13 04:59:46;;;;;;;7.50;5.27;;;;;;;18.74;73.13;99043.66;5109910;28;20201;-55
2022/09/13 05:02:13;;;;;;;6.22;5.63;;;;;;;18.85;72.96;99043.75;5112618;28;20221;-55
2022/09/13 05:04:40;;;;;;;6.28;5.60;;;;;;;19.39;71.12;99047.84;5113547;28;20198;-55
2022/09/13 05:07:07;;;;;;;6.78;5.10;;;;;;;20.35;68.03;99056.50;5113780;28;20277;-56
2022/09/13 05:09:34;;;;;;;6.53;4.75;;;;;;;21.92;61.48;99058.91;5113612;28;20206;-53
2022/09/13 05:12:01;;;;;;;9.45;5.57;;;;;;;23.55;55.73;99059.94;5113310;28;20198;-54
2022/09/13 05:14:28;;;;;;;4.55;4.15;;;;;;;25.08;51.31;99068.69;5113359;28;20198;-54
2022/09/13 05:16:57;;;;;;;5.32;4.80;;;;;;;26.30;47.76;99068.16;5113489;28;20274;-54
2022/09/13 05:19:24;;;;;;;8.43;5.25;;;;;;;27.33;44.38;99067.25;5113479;28;20564;-54
2022/09/13 05:21:51;;;;;;;12.00;4.75;;;;;;;28.16;41.95;99074.28;5113244;28;20313;-54
2022/09/13 05:24:17;;;;;;;6.30;5.10;;;;;;;28.93;40.17;99076.56;5113295;28;20195;-57
2022/09/13 05:26:44;;;;;;;5.53;4.50;;;;;;;29.85;38.04;99078.47;5112910;28;20198;-56
2022/09/13 05:29:11;;;;;;;5.22;4.82;;;;;;;30.68;36.82;99086.53;5113389;28;20201;-57
2022/09/13 05:31:40;;;;;;;4.38;4.07;;;;;;;31.15;35.23;99082.72;5112999;28;20190;-57
2022/09/13 05:34:11;;;;;;;5.93;4.40;;;;;;;30.64;35.81;99082.56;5112487;28;20245;-57
2022/09/13 05:36:38;;;;;;;5.88;4.30;;;;;;;30.70;35.48;99064.94;5113278;28;20194;-56
2022/09/13 05:39:06;;;;;;;4.32;4.03;;;;;;;30.70;35.53;99086.38;5113605;28;20199;-56
2022/09/13 05:41:33;;;;;;;4.32;3.92;;;;;;;30.73;35.25;99077.94;5112730;28;20268;-56
2022/09/13 05:44:01;;;;;;;7.75;4.75;;;;;;;31.03;35.20;99080.47;5112955;28;20202;-57
2022/09/13 05:46:28;;;;;;;9.05;4.70;;;;;;;30.85;34.97;99077.31;5112505;28;20742;-57
2022/09/13 05:48:58;;;;;;;10.23;4.70;;;;;;;31.00;35.17;99078.13;5112436;28;20220;-55
2022/09/13 05:51:26;;;;;;;9.48;4.55;;;;;;;31.89;33.78;99075.34;5112251;28;20197;-55
2022/09/13 05:53:54;;;;;;;6.15;4.25;;;;;;;32.65;32.77;99079.09;5109803;28;20198;-54
2022/09/13 05:56:23;;;;;;;6.38;4.25;;;;;;;32.42;33.07;99076.66;5112377;28;20614;-54
2022/09/13 05:58:52;;;;;;;8.20;4.70;;;;;;;32.22;32.96;99064.94;5112170;28;20641;-54
2022/09/13 06:01:21;;;;;;;4.20;3.47;;;;;;;32.96;32.77;99081.41;5112192;28;20218;-54
2022/09/13 06:03:49;;;;;;;8.35;4.47;;;;;;;33.40;31.77;99081.88;5111601;28;20194;-54
2022/09/13 06:06:16;;;;;;;4.13;3.83;;;;;;;34.03;30.86;99084.31;5111972;28;20187;-55
2022/09/13 06:08:44;;;;;;;7.47;4.18;;;;;;;34.65;30.15;99080.44;5111900;28;20199;-55
2022/09/13 06:11:13;;;;;;;6.13;4.32;;;;;;;34.60;29.81;99091.84;5111913;28;20197;-57
2022/09/13 06:13:41;;;;;;;4.63;3.90;;;;;;;34.82;29.56;99065.50;5111267;28;20276;-57
2022/09/13 06:16:10;;;;;;;7.20;4.15;;;;;;;34.90;29.32;99084.13;5109359;28;20598;-57
2022/09/13 06:18:37;;;;;;;5.10;4.70;;;;;;;34.35;30.32;99091.63;5112035;28;20658;-57
2022/09/13 06:21:06;;;;;;;4.97;3.88;;;;;;;34.75;29.50;99086.22;5112189;28;20206;-57
2022/09/13 06:23:34;;;;;;;4.70;4.30;;;;;;;34.94;29.05;99090.78;5112040;28;20209;-54
2022/09/13 06:26:04;;;;;;;4.80;4.03;;;;;;;34.98;28.57;99097.41;5111863;28;20592;-54
2022/09/13 06:28:31;;;;;;;4.10;3.78;;;;;;;34.88;28.75;99088.91;5109698;28;20674;-55
2022/09/13 06:31:04;;;;;;;4.40;3.97;;;;;;;34.51;28.99;99091.22;5110596;28;20732;-54
2022/09/13 06:33:32;;;;;;;3.55;3.25;;;;;;;34.78;28.73;99093.91;5111680;28;20226;-54
2022/09/13 06:36:01;;;;;;;6.22;3.60;;;;;;;34.95;28.40;99095.13;5111037;28;20224;-56
2022/09/13 06:38:28;;;;;;;6.57;4.35;;;;;;;33.93;29.53;99091.97;5111571;28;20233;-58
2022/09/13 06:41:05;;;;;;;4.97;3.80;;;;;;;34.93;28.53;99099.91;5111674;28;20281;-57
2022/09/13 06:43:32;;;;;;;8.95;7.45;;;;;;;36.24;27.11;99105.78;5111195;28;20584;-57
2022/09/13 06:46:01;;;;;;;13.82;6.15;;;;;;;36.56;26.74;99107.41;5111347;28;20190;-59
2022/09/13 06:48:31;;;;;;;5.32;4.03;;;;;;;37.03;25.93;99115.91;5111253;28;20205;-55
2022/09/13 06:50:59;;;;;;;6.78;5.45;;;;;;;36.74;26.11;99109.34;5111553;28;20597;-54
2022/09/13 06:53:27;;;;;;;8.27;5.63;;;;;;;36.88;25.91;99110.03;5111178;28;20197;-55
2022/09/13 06:56:03;;;;;;;6.00;4.80;;;;;;;36.84;25.91;99116.94;5111061;28;20196;-56
2022/09/13 06:58:31;;;;;;;5.45;4.07;;;;;;;36.30;26.68;99107.63;5111407;28;20297;-55
2022/09/13 07:01:10;;;;;;;4.50;4.22;;;;;;;35.71;27.24;99108.78;5111615;28;20289;-54
2022/09/13 07:03:38;;;;;;;10.50;7.85;;;;;;;35.55;27.83;99112.81;5111335;28;20727;-55
2022/09/13 07:06:16;;;;;;;4.80;4.38;;;;;;;35.04;27.84;99106.50;5111171;28;20198;-54
2022/09/13 07:08:44;;;;;;;3.75;3.40;;;;;;;34.66;28.74;99114.41;5111422;28;20194;-55
2022/09/13 07:11:14;;;;;;;3.97;3.72;;;;;;;34.84;28.33;99112.78;5111603;28;20198;-55
2022/09/13 07:13:42;;;;;;;4.38;3.58;;;;;;;36.23;26.92;99120.38;5111373;28;20194;-54
2022/09/13 07:16:11;;;;;;;4.88;3.30;;;;;;;36.22;26.57;99113.31;5110971;28;20204;-54
2022/09/13 07:18:38;;;;;;;3.92;3.63;;;;;;;36.94;25.54;99109.97;5110735;28;20225;-55
2022/09/13 07:21:07;;;;;;;3.65;3.05;;;;;;;37.63;25.14;99116.09;5111023;28;20206;-55
2022/09/13 07:23:36;;;;;;;3.30;2.90;;;;;;;37.75;24.57;99131.34;5110214;28;20252;-54
2022/09/13 07:26:04;;;;;;;4.40;3.30;;;;;;;37.32;24.61;99122.50;5109448;28;20200;-55
2022/09/13 07:28:35;;;;;;;4.28;2.80;;;;;;;37.38;24.86;99127.81;5110184;28;20201;-54
2022/09/13 07:31:07;;;;;;;2.90;2.80;;;;;;;38.04;23.98;99142.38;5108343;28;20192;-54
2022/09/13 07:33:35;;;;;;;3.08;2.97;;;;;;;38.45;23.87;99133.47;5110094;28;20218;-57
2022/09/13 07:36:05;;;;;;;4.13;3.30;;;;;;;38.56;23.48;99137.28;5110305;28;20200;-56
2022/09/13 07:38:32;;;;;;;3.38;3.03;;;;;;;38.84;23.16;99140.94;5110350;28;20648;-55
2022/09/13 07:40:59;;;;;;;10.02;3.08;;;;;;;38.77;22.86;99137.53;5108037;28;20677;-55
2022/09/13 07:43:27;;;;;;;3.97;2.97;;;;;;;38.84;23.36;99134.69;5109902;28;20206;-54
2022/09/13 07:46:00;;;;;;;4.00;3.72;;;;;;;38.69;22.90;99140.59;5109879;28;20208;-56
2022/09/13 07:48:28;;;;;;;3.25;3.05;;;;;;;39.26;22.89;99126.44;5110265;28;20190;-55
2022/09/13 07:51:00;;;;;;;3.35;3.15;;;;;;;40.12;22.04;99131.69;5109911;28;20205;-55
2022/09/13 07:53:27;;;;;;;3.00;2.72;;;;;;;41.49;20.88;99138.47;5107461;28;20192;-55
2022/09/13 07:55:54;;;;;;;5.43;3.30;;;;;;;41.52;21.04;99146.13;5110329;28;20202;-58
2022/09/13 07:58:21;;;;;;;3.50;3.15;;;;;;;39.89;21.80;99129.94;5110109;28;20281;-57
2022/09/13 08:00:48;;;;;;;2.97;2.70;;;;;;;40.52;21.47;99130.78;5110125;28;20197;-55
2022/09/13 08:03:16;;;;;;;3.08;2.88;;;;;;;41.34;20.87;99136.34;5110246;28;20229;-57
2022/09/13 08:05:43;;;;;;;3.42;3.15;;;;;;;41.29;20.65;99139.84;5110187;28;20649;-55
2022/09/13 08:08:10;;;;;;;4.82;2.60;;;;;;;41.49;20.88;99136.56;5109763;28;20197;-54
2022/09/13 08:10:37;;;;;;;3.35;2.63;;;;;;;41.55;20.38;99132.00;5109928;28;20198;-55
2022/09/13 08:13:04;;;;;;;3.63;3.15;;;;;;;40.66;20.78;99131.25;5110335;28;20668;-55
2022/09/13 08:15:31;;;;;;;3.70;3.03;;;;;;;40.47;20.56;99119.81;5109921;28;20194;-55
2022/09/13 08:17:58;;;;;;;2.53;2.42;;;;;;;40.30;20.87;99119.00;5109957;28;20195;-55
2022/09/13 08:20:26;;;;;;;3.33;2.97;;;;;;;39.55;21.20;99122.72;5109873;28;20190;-55
2022/09/13 08:22:53;;;;;;;3.05;2.90;;;;;;;36.26;24.17;99101.00;5109870;28;20213;-55
2022/09/13 08:25:20;;;;;;;4.45;3.00;;;;;;;33.99;26.44;99091.16;5109970;28;20571;-54
2022/09/13 08:27:47;;;;;;;2.67;2.58;;;;;;;31.84;29.58;99089.31;5110120;28;20197;-55
2022/09/13 08:30:14;;;;;;;7.57;2.88;;;;;;;31.16;31.36;99097.75;5110342;28;20660;-54
2022/09/13 08:32:40;;;;;;;3.47;2.70;;;;;;;30.41;32.30;99100.47;5109563;28;20230;-54
2022/09/13 08:35:08;;;;;;;6.78;3.03;;;;;;;30.07;34.15;99093.72;5109912;28;20191;-53
2022/09/13 08:37:37;;;;;;;10.55;5.88;;;;;;;29.34;34.66;99091.44;5109174;28;20191;-55
2022/09/13 08:40:04;;;;;;;4.43;4.03;;;;;;;29.25;34.90;99097.81;5109401;28;20249;-54
2022/09/13 08:42:44;;;;;;;5.45;3.65;;;;;;;29.10;34.94;99100.41;5109182;28;20222;-54
2022/09/13 08:45:11;;;;;;;3.92;2.80;;;;;;;28.70;34.42;99092.44;5109813;28;20194;-54
2022/09/13 08:47:43;;;;;;;3.28;2.90;;;;;;;28.14;35.57;99096.78;5109547;28;20209;-55
2022/09/13 08:50:18;;;;;;;4.43;2.80;;;;;;;28.18;35.50;99088.31;5109811;28;20198;-55
2022/09/13 08:53:04;;;;;;;5.38;3.65;;;;;;;28.06;35.08;99084.28;5109634;28;20190;-55
2022/09/13 08:55:44;;;;;;;4.10;3.08;;;;;;;27.84;35.51;99082.25;5109510;28;20190;-54
2022/09/13 08:58:29;;;;;;;3.08;2.85;;;;;;;28.02;35.77;99090.94;5109627;28;20204;-53
2022/09/13 09:01:03;;;;;;;3.40;3.25;;;;;;;28.10;35.83;99082.94;5109644;28;20624;-54
2022/09/13 09:03:41;;;;;;;5.07;3.08;;;;;;;27.94;35.43;99068.75;5109244;28;20213;-53
2022/09/13 09:06:13;;;;;;;3.00;2.80;;;;;;;28.21;35.49;99071.16;5110265;28;20236;-56
2022/09/13 09:08:46;;;;;;;3.00;2.80;;;;;;;28.02;35.79;99069.59;5109523;28;20267;-56
2022/09/13 09:11:22;;;;;;;3.03;2.80;;;;;;;27.39;36.76;99059.47;5109400;28;20663;-56
2022/09/13 09:13:56;;;;;;;2.92;2.80;;;;;;;26.88;37.63;99072.84;5109461;28;20190;-56
2022/09/13 09:16:33;;;;;;;2.90;2.80;;;;;;;26.59;37.93;99063.38;5109095;28;20201;-56
2022/09/13 09:19:07;;;;;;;4.63;4.32;;;;;;;26.42;38.31;99060.75;5109540;28;20194;-56
2022/09/13 09:21:34;;;;;;;6.07;4.38;;;;;;;26.27;38.85;99071.97;5109109;28;20237;-57
2022/09/13 09:24:04;;;;;;;5.22;4.05;;;;;;;25.76;39.88;99061.19;5106481;28;20220;-56
2022/09/13 09:26:31;;;;;;;3.33;2.90;;;;;;;25.54;40.11;99060.59;5109326;28;20205;-56
2022/09/13 09:29:01;;;;;;;4.00;3.47;;;;;;;25.39;40.97;99063.94;5109278;28;20290;-56
2022/09/13 09:31:37;;;;;;;3.00;2.90;;;;;;;25.36;41.19;99058.91;5109524;28;20194;-57
2022/09/13 09:34:15;;;;;;;3.83;2.80;;;;;;;25.23;41.47;99059.25;5109296;28;20226;-56
2022/09/13 09:36:49;;;;;;;2.67;2.58;;;;;;;25.08;41.48;99056.25;5109215;28;20581;-57
2022/09/13 09:39:18;;;;;;;6.90;3.00;;;;;;;24.97;42.74;99056.44;5106124;28;20201;-57
2022/09/13 09:41:45;;;;;;;3.22;3.03;;;;;;;24.77;42.86;99053.00;5109327;28;20201;-57
2022/09/13 09:44:19;;;;;;;3.05;2.95;;;;;;;24.69;42.57;99068.81;5109239;28;20214;-57
2022/09/13 09:46:50;;;;;;;3.45;2.83;;;;;;;24.67;42.79;99069.94;5109047;28;20195;-56
2022/09/13 09:52:10;;;;;;;2.85;2.67;;;;;;;24.73;42.19;99075.50;5113398;28;20271;-56
2022/09/13 09:54:40;;;;;;;2.90;2.70;;;;;;;24.80;42.59;99073.13;5113062;28;20690;-56
2022/09/13 09:57:07;;;;;;;2.72;2.60;;;;;;;24.89;41.71;99077.56;5112864;28;20206;-56
2022/09/13 09:59:36;;;;;;;4.45;3.00;;;;;;;25.04;41.17;99072.66;5112989;28;20649;-56
2022/09/13 10:02:15;;;;;;;3.13;2.80;;;;;;;25.07;41.02;99077.63;5112890;28;20228;-56
2022/09/13 10:04:42;;;;;;;3.50;3.08;;;;;;;25.22;40.97;99082.31;5112705;28;20289;-56
2022/09/13 10:07:26;;;;;;;3.03;2.85;;;;;;;25.25;39.67;99079.38;5112718;28;20222;-55
2022/09/13 10:10:03;;;;;;;7.43;5.43;;;;;;;25.28;39.69;99071.09;5110614;28;20195;-56
2022/09/13 10:12:33;;;;;;;3.60;3.00;;;;;;;25.28;39.48;99071.09;5100986;28;20199;-54
2022/09/13 10:15:16;;;;;;;3.78;2.83;;;;;;;25.29;40.07;99063.97;5094117;28;20589;-54
2022/09/13 10:17:43;;;;;;;3.20;3.00;;;;;;;25.24;40.20;99059.13;5110736;28;20191;-55
2022/09/13 10:20:25;;;;;;;5.13;4.20;;;;;;;25.25;39.97;99055.47;5111637;28;20191;-54
2022/09/13 10:23:11;;;;;;;5.38;4.68;;;;;;;25.30;40.05;99050.53;5109055;28;20306;-53
2022/09/13 10:25:40;;;;;;;4.80;4.32;;;;;;;25.37;39.86;99049.97;5096973;28;20198;-54
2022/09/13 10:28:14;;;;;;;3.55;3.00;;;;;;;25.51;39.91;99044.09;5112309;28;20209;-53
2022/09/13 10:30:46;;;;;;;3.35;3.15;;;;;;;25.82;39.48;99044.63;5111951;28;20194;-55
2022/09/13 10:33:29;;;;;;;3.92;3.72;;;;;;;25.97;38.72;99037.78;5112130;28;20436;-55
2022/09/13 10:35:59;;;;;;;3.25;3.05;;;;;;;25.97;39.08;99027.97;5112565;28;20287;-56
2022/09/13 10:38:30;;;;;;;2.75;2.65;;;;;;;26.01;39.07;99037.31;5112091;28;20195;-56
2022/09/13 10:41:02;;;;;;;2.40;2.30;;;;;;;26.03;38.36;99038.00;5111956;28;20209;-57
2022/09/13 10:43:30;;;;;;;2.75;2.60;;;;;;;25.94;38.71;99030.13;5111957;28;20713;-57
2022/09/13 10:46:00;;;;;;;2.67;2.50;;;;;;;25.68;38.25;99032.69;5111923;28;20221;-56
2022/09/13 10:48:31;;;;;;;4.43;2.50;;;;;;;25.47;39.12;99026.81;5111952;28;20190;-56
2022/09/13 10:51:04;;;;;;;8.77;2.85;;;;;;;25.52;39.46;99027.19;5112116;28;20204;-56
2022/09/13 10:53:35;;;;;;;2.47;2.28;;;;;;;25.71;38.97;99026.25;5111458;28;20194;-56
2022/09/13 10:56:04;;;;;;;2.70;2.50;;;;;;;25.79;38.36;99029.81;5111991;28;20194;-54
2022/09/13 10:58:31;;;;;;;2.65;2.30;;;;;;;25.73;38.48;99024.28;5111541;28;20198;-55
2022/09/13 11:01:44;;;;;;;3.05;2.95;;;;;;;25.53;39.64;99019.06;5111665;28;20194;-53
2022/09/13 11:04:35;;;;;;;2.67;2.58;;;;;;;25.28;39.94;99017.97;5111431;28;20217;-56
2022/09/13 11:07:21;;;;;;;4.90;3.03;;;;;;;25.17;40.11;99012.06;5111638;28;20629;-55
2022/09/13 11:09:57;;;;;;;4.03;2.60;;;;;;;25.16;40.12;99008.56;5111294;28;20259;-56
2022/09/13 11:12:36;;;;;;;3.03;2.92;;;;;;;25.01;40.40;98999.41;5111376;28;20229;-56
2022/09/13 11:15:17;;;;;;;2.80;2.67;;;;;;;25.11;39.92;99007.31;5111245;27;20199;-56
2022/09/13 11:18:09;;;;;;;3.10;2.90;;;;;;;25.35;39.49;98994.31;5111078;28;20207;-55
2022/09/13 11:20:45;;;;;;;3.20;2.90;;;;;;;25.63;38.84;99003.06;5111038;28;20204;-57
2022/09/13 11:23:53;;;;;;;2.58;2.47;;;;;;;25.53;38.37;99004.94;5111160;28;20217;-56
2022/09/13 11:26:36;;;;;;;3.45;2.92;;;;;;;25.40;39.25;98992.03;5111204;28;20199;-57
2022/09/13 11:29:15;;;;;;;4.97;3.47;;;;;;;25.49;39.38;98998.28;5110982;28;20666;-56
2022/09/13 11:31:48;;;;;;;4.13;3.50;;;;;;;25.42;39.20;98987.41;5110740;28;20198;-56
2022/09/13 11:34:32;;;;;;;5.22;3.88;;;;;;;25.44;39.16;98982.78;5110819;28;20309;-58
2022/09/13 11:37:15;;;;;;;6.97;4.18;;;;;;;25.43;37.51;98961.66;5111106;28;20238;-56
2022/09/13 11:39:49;;;;;;;4.63;3.55;;;;;;;25.68;37.06;98984.84;5110868;28;20226;-56
2022/09/13 11:42:31;;;;;;;3.38;3.05;;;;;;;25.76;37.09;98979.59;5110782;28;20208;-55
2022/09/13 11:45:24;;;;;;;9.20;3.40;;;;;;;25.84;37.26;98985.00;5111128;28;20194;-54
2022/09/13 11:48:07;;;;;;;3.35;2.75;;;;;;;25.81;36.41;98977.34;5110575;28;20611;-57
2022/09/13 11:50:48;;;;;;;8.02;3.47;;;;;;;25.92;36.33;98978.91;5110590;28;20205;-56
2022/09/13 11:53:55;;;;;;;3.25;2.95;;;;;;;25.98;36.08;98980.94;5110645;28;20191;-54
2022/09/13 11:56:28;;;;;;;2.03;1.92;;;;;;;25.91;35.92;98983.41;5101898;28;20197;-53
2022/09/13 11:58:59;;;;;;;2.10;2.00;;;;;;;25.95;35.84;98976.78;5110660;28;20199;-53
2022/09/13 12:01:32;;;;;;;2.97;2.70;;;;;;;26.03;36.10;98976.84;5110578;28;20194;-54